createdAt,value
2023-01-13T00:02:10.966Z,99551.72
2023-01-13T00:07:12.472Z,99541.47
2023-01-13T00:12:13.912Z,99545.22
2023-01-13T00:17:15.343Z,99547.22
2023-01-13T00:22:16.830Z,99513.47
2023-01-13T00:27:18.319Z,99515.22
2023-01-13T00:32:19.740Z,99527.09
2023-01-13T00:37:21.366Z,99525.69
2023-01-13T00:42:41.157Z,99532.09
2023-01-13T00:47:42.590Z,99546.78
2023-01-13T00:52:44.066Z,99540.66
2023-01-13T00:57:45.471Z,99546.78
2023-01-13T01:02:46.922Z,99541.00
2023-01-13T01:07:48.564Z,99526.03
2023-01-13T01:12:50.837Z,99544.94
2023-01-13T01:17:52.329Z,99554.50
2023-01-13T01:22:53.728Z,99569.88
2023-01-13T01:27:55.308Z,99582.75
2023-01-13T01:32:57.288Z,99590.75
2023-01-13T01:37:58.727Z,99580.09
2023-01-13T01:43:18.747Z,99575.47
2023-01-13T01:48:20.379Z,99557.63
2023-01-13T01:53:24.620Z,99562.56
2023-01-13T01:58:31.167Z,99557.84
2023-01-13T02:03:35.063Z,99563.41
2023-01-13T02:08:39.078Z,99562.75
2023-01-13T02:13:40.544Z,99566.19
2023-01-13T02:19:22.456Z,99558.97
2023-01-13T02:24:55.963Z,99550.47
2023-01-13T02:30:27.448Z,99552.91
2023-01-13T02:35:47.410Z,99557.06
2023-01-13T02:41:23.207Z,99569.66
2023-01-13T02:46:48.560Z,99566.50
2023-01-13T02:51:52.643Z,99572.59
2023-01-13T02:56:56.663Z,99567.19
2023-01-13T03:01:59.548Z,99568.09
2023-01-13T03:07:12.777Z,99554.44
2023-01-13T03:12:34.470Z,99549.50
2023-01-13T03:17:49.663Z,99557.25
2023-01-13T03:23:03.168Z,99554.22
2023-01-13T03:28:17.884Z,99571.34
2023-01-13T03:33:29.484Z,99560.88
2023-01-13T03:38:39.241Z,99581.63
2023-01-13T03:44:24.888Z,99585.41
2023-01-13T03:49:42.488Z,99573.84
2023-01-13T03:54:51.945Z,99577.34
2023-01-13T03:59:58.825Z,99589.75
2023-01-13T04:05:03.530Z,99563.78
2023-01-13T04:10:09.080Z,99562.72
2023-01-13T04:15:12.442Z,99574.75
2023-01-13T04:20:14.637Z,99561.78
2023-01-13T04:25:16.311Z,99558.38
2023-01-13T04:30:17.964Z,99545.06
2023-01-13T04:35:19.548Z,99559.69
2023-01-13T04:40:21.383Z,99558.13
2023-01-13T04:45:22.873Z,99559.28
2023-01-13T04:50:24.729Z,99536.41
2023-01-13T04:55:26.317Z,99543.13
2023-01-13T05:00:27.757Z,99535.88
2023-01-13T05:05:30.392Z,99532.47
2023-01-13T05:10:31.980Z,99521.94
2023-01-13T05:15:52.456Z,99532.53
2023-01-13T05:20:53.940Z,99536.56
2023-01-13T05:25:55.535Z,99533.75
2023-01-13T05:30:57.080Z,99545.09
2023-01-13T05:36:02.294Z,99532.81
2023-01-13T05:41:27.035Z,99552.56
2023-01-13T05:46:28.542Z,99531.81
2023-01-13T05:51:30.035Z,99545.78
2023-01-13T05:56:31.551Z,99517.34
2023-01-13T06:01:33.236Z,99524.03
2023-01-13T06:06:34.688Z,99522.38
2023-01-13T06:11:36.094Z,99524.84
2023-01-13T06:16:37.725Z,99526.72
2023-01-13T06:21:39.860Z,99525.94
2023-01-13T06:26:41.547Z,99517.59
2023-01-13T06:31:43.349Z,99504.00
2023-01-13T06:36:50.426Z,99512.56
2023-01-13T06:42:12.783Z,99519.50
2023-01-13T06:47:14.472Z,99510.53
2023-01-13T06:52:16.063Z,99513.81
2023-01-13T06:57:17.592Z,99499.03
2023-01-13T07:02:19.466Z,99496.59
2023-01-13T07:07:20.987Z,99487.03
2023-01-13T07:12:22.395Z,99505.38
2023-01-13T07:17:26.788Z,99505.97
2023-01-13T07:22:28.252Z,99503.22
2023-01-13T07:27:29.739Z,99508.22
2023-01-13T07:32:34.549Z,99502.94
2023-01-13T07:37:37.602Z,99504.44
2023-01-13T07:42:58.130Z,99501.66
2023-01-13T07:47:59.670Z,99506.34
2023-01-13T07:53:01.322Z,99516.69
2023-01-13T07:58:02.788Z,99511.34
2023-01-13T08:03:04.835Z,99497.75
2023-01-13T08:08:06.330Z,99500.19
2023-01-13T08:13:19.574Z,99488.69
2023-01-13T08:18:22.232Z,99498.78
2023-01-13T08:23:23.742Z,99507.31
2023-01-13T08:28:25.413Z,99507.88
2023-01-13T08:33:27.671Z,99513.91
2023-01-13T08:38:29.129Z,99510.47
2023-01-13T08:43:30.552Z,99504.19
2023-01-13T08:48:32.063Z,99494.88
2023-01-13T08:53:33.561Z,99485.06
2023-01-13T08:58:35.029Z,99481.25
2023-01-13T09:03:36.505Z,99494.44
2023-01-13T09:08:38.000Z,99516.31
2023-01-13T09:13:39.620Z,99521.41
2023-01-13T09:18:41.027Z,99498.50
2023-01-13T09:23:42.492Z,99507.97
2023-01-13T09:28:43.906Z,99515.44
2023-01-13T09:34:03.828Z,99500.88
2023-01-13T09:39:05.874Z,99501.00
2023-01-13T09:44:13.595Z,99514.09
2023-01-13T09:49:28.016Z,99515.00
2023-01-13T09:54:32.042Z,99508.59
2023-01-13T09:59:36.306Z,99496.06
2023-01-13T10:04:37.886Z,99495.50
2023-01-13T10:09:54.035Z,99499.09
2023-01-13T10:14:56.097Z,99503.34
2023-01-13T10:20:16.038Z,99495.72
2023-01-13T10:25:30.252Z,99478.47
2023-01-13T10:30:41.954Z,99471.75
2023-01-13T10:35:59.361Z,99488.25
2023-01-13T10:41:19.356Z,99473.81
2023-01-13T10:46:20.964Z,99470.34
2023-01-13T10:51:25.455Z,99476.75
2023-01-13T10:56:30.704Z,99463.00
2023-01-13T11:01:32.291Z,99465.00
2023-01-13T11:06:35.315Z,99476.31
2023-01-13T11:11:43.437Z,99473.72
2023-01-13T11:16:53.460Z,99468.59
2023-01-13T11:22:11.174Z,99476.00
2023-01-13T11:27:21.004Z,99486.50
2023-01-13T11:32:24.510Z,99477.47
2023-01-13T11:37:33.378Z,99481.97
2023-01-13T11:42:55.876Z,99469.44
2023-01-13T11:48:00.189Z,99478.88
2023-01-13T11:53:09.599Z,99476.38
2023-01-13T11:58:50.330Z,99473.53
2023-01-13T12:04:18.180Z,99485.69
2023-01-13T12:09:42.489Z,99490.44
2023-01-13T12:14:49.776Z,99486.53
2023-01-13T12:19:51.448Z,99508.78
2023-01-13T12:25:05.722Z,99485.34
2023-01-13T12:30:22.710Z,99490.41
2023-01-13T12:35:53.225Z,99479.06
2023-01-13T12:41:24.507Z,99487.88
2023-01-13T12:46:25.974Z,99476.47
2023-01-13T12:51:37.859Z,99476.63
2023-01-13T12:56:44.791Z,99479.25
2023-01-13T13:01:48.714Z,99474.22
2023-01-13T13:07:14.093Z,99503.78
2023-01-13T13:12:49.443Z,99484.69
2023-01-13T13:18:08.595Z,99503.97
2023-01-13T13:23:39.073Z,99498.16
2023-01-13T13:28:53.580Z,99499.16
2023-01-13T13:34:25.740Z,99495.84
2023-01-13T13:39:49.150Z,99511.91
2023-01-13T13:45:09.949Z,99493.16
2023-01-13T13:50:16.806Z,99515.88
2023-01-13T13:55:21.860Z,99497.97
2023-01-13T14:00:33.249Z,99520.34
2023-01-13T14:05:36.165Z,99513.50
2023-01-13T14:10:40.229Z,99526.72
2023-01-13T14:15:42.010Z,99529.28
2023-01-13T14:20:44.156Z,99534.41
2023-01-13T14:25:51.083Z,99540.50
2023-01-13T14:30:53.933Z,99534.09
2023-01-13T14:36:04.493Z,99540.88
2023-01-13T14:41:24.176Z,99558.28
2023-01-13T14:46:39.732Z,99573.88
2023-01-13T14:51:41.333Z,99578.19
2023-01-13T14:56:51.032Z,99563.47
2023-01-13T15:01:54.227Z,99573.34
2023-01-13T15:06:57.700Z,99573.47
2023-01-13T15:12:00.228Z,99575.44
2023-01-13T15:17:02.824Z,99589.09
2023-01-13T15:22:04.360Z,99583.59
2023-01-13T15:27:19.687Z,99595.88
2023-01-13T15:32:21.691Z,99603.75
2023-01-13T15:37:25.480Z,99617.88
2023-01-13T15:42:45.549Z,99618.88
2023-01-13T15:47:48.187Z,99638.88
2023-01-13T15:52:49.631Z,99630.28
2023-01-13T15:57:51.157Z,99642.25
2023-01-13T16:02:52.741Z,99656.19
2023-01-13T16:07:54.289Z,99640.03
2023-01-13T16:12:55.914Z,99639.13
2023-01-13T16:18:00.285Z,99656.47
2023-01-13T16:23:01.748Z,99657.69
2023-01-13T16:28:03.501Z,99656.81
2023-01-13T16:33:05.095Z,99658.28
2023-01-13T16:38:06.577Z,99656.47
2023-01-13T16:43:12.276Z,99663.25
2023-01-13T16:48:20.284Z,99659.19
2023-01-13T16:53:21.763Z,99665.97
2023-01-13T16:58:23.397Z,99688.19
2023-01-13T17:03:24.940Z,99689.94
2023-01-13T17:08:26.478Z,99703.78
2023-01-13T17:13:28.220Z,99704.78
2023-01-13T17:18:29.953Z,99703.78
2023-01-13T17:23:31.668Z,99693.16
2023-01-13T17:28:33.222Z,99700.06
2023-01-13T17:33:37.094Z,99714.25
2023-01-13T17:38:38.611Z,99760.16
2023-01-13T17:43:40.152Z,99725.41
2023-01-13T17:48:41.585Z,99727.81
2023-01-13T17:53:45.433Z,99746.03
2023-01-13T17:58:46.900Z,99743.28
2023-01-13T18:03:49.437Z,99759.81
2023-01-13T18:08:51.154Z,99757.88
2023-01-13T18:13:57.416Z,99762.16
2023-01-13T18:19:18.435Z,99771.75
2023-01-13T18:24:38.598Z,99769.09
2023-01-13T18:29:40.085Z,99770.78
2023-01-13T18:34:41.608Z,99784.00
2023-01-13T18:39:43.057Z,99790.81
2023-01-13T18:44:44.583Z,99775.19
2023-01-13T18:49:46.221Z,99782.25
2023-01-13T18:54:47.763Z,99811.50
2023-01-13T18:59:49.402Z,99810.75
2023-01-13T19:04:50.987Z,99843.28
2023-01-13T19:09:55.600Z,99853.94
2023-01-13T19:14:58.407Z,99866.22
2023-01-13T19:20:00.610Z,99865.66
2023-01-13T19:25:03.689Z,99874.34
2023-01-13T19:30:06.010Z,99878.72
2023-01-13T19:35:07.870Z,99895.06
2023-01-13T19:40:10.359Z,99895.94
2023-01-13T19:45:26.566Z,99900.03
2023-01-13T19:50:28.126Z,99923.94
2023-01-13T19:55:31.667Z,99936.88
2023-01-13T20:00:33.329Z,99948.13
2023-01-13T20:05:34.842Z,99955.06
2023-01-13T20:10:37.601Z,99966.56
2023-01-13T20:15:39.991Z,99989.16
2023-01-13T20:20:41.538Z,99975.97
2023-01-13T20:25:43.136Z,99997.75
2023-01-13T20:30:44.688Z,99999.50
2023-01-13T20:35:46.193Z,100008.06
2023-01-13T20:40:47.615Z,100014.19
2023-01-13T20:45:49.806Z,100036.69
2023-01-13T20:50:57.753Z,100043.66
2023-01-13T20:55:59.285Z,100050.38
2023-01-13T21:01:01.352Z,100068.66
2023-01-13T21:06:02.978Z,100081.78
2023-01-13T21:11:06.072Z,100079.69
2023-01-13T21:16:09.800Z,100093.69
2023-01-13T21:21:11.578Z,100098.88
2023-01-13T21:26:15.417Z,100103.19
2023-01-13T21:31:18.101Z,100116.28
2023-01-13T21:36:19.636Z,100129.66
2023-01-13T21:41:41.181Z,100149.22
2023-01-13T21:47:01.014Z,100144.09
2023-01-13T21:52:02.447Z,100169.19
2023-01-13T21:57:03.926Z,100193.53
2023-01-13T22:02:25.581Z,100209.22
2023-01-13T22:07:28.105Z,100217.19
2023-01-13T22:12:30.048Z,100238.88
2023-01-13T22:17:31.699Z,100254.38
2023-01-13T22:22:36.742Z,100256.44
2023-01-13T22:27:43.372Z,100258.38
2023-01-13T22:32:45.743Z,100284.31
2023-01-13T22:37:47.142Z,100286.25
2023-01-13T22:42:48.610Z,100299.78
2023-01-13T22:47:50.102Z,100297.13
2023-01-13T22:52:51.565Z,100312.03
2023-01-13T22:57:53.494Z,100326.47
2023-01-13T23:02:54.905Z,100325.72
2023-01-13T23:07:56.374Z,100341.16
2023-01-13T23:12:57.834Z,100347.41
2023-01-13T23:17:59.358Z,100355.81
2023-01-13T23:23:00.920Z,100369.50
2023-01-13T23:28:02.421Z,100377.28
2023-01-13T23:33:03.938Z,100386.72
2023-01-13T23:38:05.566Z,100391.91
2023-01-13T23:43:07.097Z,100403.00
2023-01-13T23:48:08.729Z,100401.66
2023-01-13T23:53:10.461Z,100399.75
2023-01-13T23:58:12.448Z,100416.97
